createdAt,value
2017-01-03T00:00:54.282Z,728.62
2017-01-03T00:01:54.260Z,728.66
2017-01-03T00:02:54.232Z,728.57
2017-01-03T00:03:54.203Z,728.6
2017-01-03T00:04:54.176Z,728.54
2017-01-03T00:06:54.326Z,728.55
2017-01-03T00:07:54.102Z,728.53
2017-01-03T00:08:54.072Z,728.57
2017-01-03T00:09:54.048Z,728.54
2017-01-03T00:10:54.022Z,728.53
2017-01-03T00:11:53.993Z,728.53
2017-01-03T00:12:53.967Z,728.59
2017-01-03T00:13:53.940Z,728.59
2017-01-03T00:14:53.917Z,728.58
2017-01-03T00:15:53.888Z,728.62
2017-01-03T00:16:53.864Z,728.69
2017-01-03T00:17:53.838Z,728.61
2017-01-03T00:18:53.812Z,728.67
2017-01-03T00:19:53.785Z,728.6
2017-01-03T00:20:53.755Z,728.66
2017-01-03T00:21:53.732Z,728.67
2017-01-03T00:22:53.704Z,728.64
2017-01-03T00:23:53.676Z,728.66
2017-01-03T00:24:53.652Z,728.7
2017-01-03T00:25:53.623Z,728.6
2017-01-03T00:26:53.600Z,728.61
2017-01-03T00:27:53.569Z,728.64
2017-01-03T00:28:53.546Z,728.65
2017-01-03T00:29:53.516Z,728.64
2017-01-03T00:30:53.490Z,728.67
2017-01-03T00:31:53.466Z,728.69
2017-01-03T00:32:53.440Z,728.65
2017-01-03T00:33:53.414Z,728.71
2017-01-03T00:34:53.387Z,728.66
2017-01-03T00:35:53.360Z,728.68
2017-01-03T00:36:53.334Z,728.69
2017-01-03T00:37:53.304Z,728.72
2017-01-03T00:38:53.280Z,728.69
2017-01-03T00:39:53.250Z,728.69
2017-01-03T00:40:53.227Z,728.67
2017-01-03T00:41:53.201Z,728.63
2017-01-03T00:42:53.177Z,728.69
2017-01-03T00:43:53.147Z,728.7
2017-01-03T00:44:53.118Z,728.73
2017-01-03T00:45:53.091Z,728.75
2017-01-03T00:46:53.067Z,728.7
2017-01-03T00:47:53.041Z,728.72
2017-01-03T00:48:53.011Z,728.71
2017-01-03T00:49:52.984Z,728.71
2017-01-03T00:50:52.960Z,728.73
2017-01-03T00:51:52.934Z,728.77
2017-01-03T00:52:52.904Z,728.76
2017-01-03T00:53:52.876Z,728.74
2017-01-03T00:54:52.850Z,728.73
2017-01-03T00:55:52.827Z,728.7
2017-01-03T00:56:52.797Z,728.69
2017-01-03T00:57:52.769Z,728.73
2017-01-03T00:58:52.746Z,728.73
2017-01-03T00:59:52.719Z,728.77
2017-01-03T01:00:52.689Z,728.76
2017-01-03T01:01:52.666Z,728.76
2017-01-03T01:02:52.639Z,728.74
2017-01-03T01:03:52.612Z,728.77
2017-01-03T01:04:52.581Z,728.76
2017-01-03T01:05:52.558Z,728.78
2017-01-03T01:06:52.529Z,728.82
2017-01-03T01:07:52.502Z,728.8
2017-01-03T01:08:52.475Z,728.82
2017-01-03T01:09:52.451Z,728.77
2017-01-03T01:10:52.425Z,728.82
2017-01-03T01:11:52.394Z,728.73
2017-01-03T01:12:52.370Z,728.77
2017-01-03T01:13:52.340Z,728.78
2017-01-03T01:14:52.319Z,728.71
2017-01-03T01:15:52.286Z,728.71
2017-01-03T01:16:52.259Z,728.77
2017-01-03T01:17:52.243Z,728.73
2017-01-03T01:18:52.208Z,728.67
2017-01-03T01:19:52.176Z,728.68
2017-01-03T01:20:52.149Z,728.75
2017-01-03T01:21:52.125Z,728.72
2017-01-03T01:22:52.097Z,728.8
2017-01-03T01:23:52.067Z,728.74
2017-01-03T01:24:52.040Z,728.71
2017-01-03T01:25:52.016Z,728.69
2017-01-03T01:26:51.984Z,728.7
2017-01-03T01:27:51.960Z,728.66
2017-01-03T01:28:51.929Z,728.69
2017-01-03T01:29:51.902Z,728.72
2017-01-03T01:30:51.874Z,728.74
2017-01-03T01:31:51.846Z,728.75
2017-01-03T01:32:51.819Z,728.78
2017-01-03T01:33:51.794Z,728.73
2017-01-03T01:34:51.767Z,728.77
2017-01-03T01:35:51.736Z,728.75
2017-01-03T01:36:51.709Z,728.77
2017-01-03T01:37:51.681Z,728.73
2017-01-03T01:38:51.657Z,728.76
2017-01-03T01:39:51.626Z,728.72
2017-01-03T01:40:51.602Z,728.84
2017-01-03T01:41:51.574Z,728.82
2017-01-03T01:42:51.543Z,728.8
2017-01-03T01:43:51.519Z,728.81
2017-01-03T01:44:51.487Z,728.85
2017-01-03T01:45:51.463Z,728.83
2017-01-03T01:46:51.433Z,728.86
2017-01-03T01:47:51.408Z,728.9
2017-01-03T01:48:51.380Z,728.84
2017-01-03T01:49:51.353Z,728.85
2017-01-03T01:50:51.325Z,728.84
2017-01-03T01:51:51.295Z,728.81
2017-01-03T01:52:51.271Z,728.8
2017-01-03T01:53:51.241Z,728.84
2017-01-03T01:54:51.217Z,728.78
2017-01-03T01:55:51.185Z,728.84
2017-01-03T01:56:51.161Z,728.88
2017-01-03T01:57:51.130Z,728.83
2017-01-03T01:58:51.103Z,728.85
2017-01-03T01:59:51.074Z,728.88
2017-01-03T02:00:51.046Z,728.93
2017-01-03T02:01:51.022Z,728.95
2017-01-03T02:02:50.990Z,728.93
2017-01-03T02:03:50.967Z,728.94
2017-01-03T02:04:50.940Z,728.9
2017-01-03T02:05:50.912Z,728.97
2017-01-03T02:06:50.884Z,728.9
2017-01-03T02:07:50.856Z,728.87
2017-01-03T02:08:50.829Z,728.9
2017-01-03T02:09:50.801Z,728.98
2017-01-03T02:10:50.773Z,728.96
2017-01-03T02:11:50.743Z,729
2017-01-03T02:12:50.715Z,728.95
2017-01-03T02:13:50.690Z,728.93
2017-01-03T02:14:50.659Z,728.89
2017-01-03T02:15:50.635Z,728.95
2017-01-03T02:16:50.607Z,728.99
2017-01-03T02:17:50.578Z,728.92
2017-01-03T02:18:50.547Z,728.93
2017-01-03T02:19:50.520Z,728.97
2017-01-03T02:20:50.495Z,728.98
2017-01-03T02:21:50.463Z,728.92
2017-01-03T02:22:50.435Z,729
2017-01-03T02:23:50.410Z,728.97
2017-01-03T02:24:50.381Z,728.91
2017-01-03T02:25:50.350Z,728.97
2017-01-03T02:26:50.322Z,728.94
2017-01-03T02:27:50.297Z,729.01
2017-01-03T02:28:50.266Z,728.96
2017-01-03T02:29:50.238Z,729.03
2017-01-03T02:30:50.210Z,729.03
2017-01-03T02:31:50.185Z,729.07
2017-01-03T02:32:50.156Z,729.06
2017-01-03T02:33:50.128Z,729.05
2017-01-03T02:34:50.100Z,728.96
2017-01-03T02:35:50.072Z,728.94
2017-01-03T02:36:50.044Z,728.96
2017-01-03T02:37:50.016Z,728.97
2017-01-03T02:38:49.988Z,728.94
2017-01-03T02:39:49.956Z,729.01
2017-01-03T02:40:49.932Z,729.03
2017-01-03T02:41:49.904Z,728.99
2017-01-03T02:42:49.873Z,729.01
2017-01-03T02:43:49.843Z,729.03
2017-01-03T02:44:49.827Z,729.03
2017-01-03T02:45:49.793Z,729.03
2017-01-03T02:46:49.765Z,729.03
2017-01-03T02:47:49.737Z,729.07
2017-01-03T02:48:49.707Z,729.05
2017-01-03T02:49:49.679Z,729.05
2017-01-03T02:50:49.654Z,729
2017-01-03T02:51:49.624Z,728.94
2017-01-03T02:52:49.597Z,728.96
2017-01-03T02:53:49.573Z,728.99
2017-01-03T02:54:49.545Z,728.95
2017-01-03T02:55:49.514Z,728.98
2017-01-03T02:56:49.490Z,729.02
2017-01-03T02:57:49.462Z,729.03
2017-01-03T02:58:49.431Z,728.99
2017-01-03T02:59:49.404Z,729.04
2017-01-03T03:00:49.377Z,729.01
2017-01-03T03:01:49.349Z,728.98
2017-01-03T03:02:49.321Z,728.96
2017-01-03T03:03:49.295Z,728.98
2017-01-03T03:04:49.272Z,728.98
2017-01-03T03:05:49.240Z,728.89
2017-01-03T03:06:49.212Z,728.94
2017-01-03T03:07:49.185Z,728.96
2017-01-03T03:08:49.157Z,729
2017-01-03T03:09:49.130Z,728.96
2017-01-03T03:10:49.106Z,728.99
2017-01-03T03:11:49.076Z,728.95
2017-01-03T03:12:49.049Z,728.9
2017-01-03T03:13:49.021Z,728.89
2017-01-03T03:14:48.994Z,728.92
2017-01-03T03:15:48.971Z,728.93
2017-01-03T03:16:48.939Z,728.94
2017-01-03T03:17:48.915Z,728.9
2017-01-03T03:18:48.884Z,728.89
2017-01-03T03:19:48.860Z,728.94
2017-01-03T03:20:48.832Z,728.94
2017-01-03T03:21:48.805Z,728.97
2017-01-03T03:22:48.774Z,729.02
2017-01-03T03:23:48.746Z,729
2017-01-03T03:24:48.718Z,729.02
2017-01-03T03:25:48.694Z,728.99
2017-01-03T03:26:48.664Z,728.97
2017-01-03T03:27:48.640Z,728.96
2017-01-03T03:28:48.609Z,728.92
2017-01-03T03:29:48.585Z,728.97
2017-01-03T03:30:48.553Z,728.93
2017-01-03T03:31:48.529Z,729.04
2017-01-03T03:32:48.497Z,729.03
2017-01-03T03:33:48.470Z,729.02
2017-01-03T03:34:48.444Z,729.15
2017-01-03T03:35:48.413Z,729.1
2017-01-03T03:36:48.392Z,729.04
2017-01-03T03:37:48.357Z,729.03
2017-01-03T03:38:48.332Z,729.02
2017-01-03T03:39:48.301Z,729.02
2017-01-03T03:40:48.277Z,728.98
2017-01-03T03:41:48.249Z,729.02
2017-01-03T03:42:48.220Z,728.97
2017-01-03T03:43:48.192Z,729
2017-01-03T03:44:48.161Z,728.94
2017-01-03T03:45:48.135Z,728.93
2017-01-03T03:46:48.104Z,728.95
2017-01-03T03:47:48.078Z,728.91
2017-01-03T03:48:48.046Z,728.9
2017-01-03T03:49:48.018Z,728.93
2017-01-03T03:50:47.989Z,728.92
2017-01-03T03:51:47.964Z,728.92
2017-01-03T03:52:47.931Z,728.94
2017-01-03T03:53:47.906Z,728.89
2017-01-03T03:54:47.876Z,728.84
2017-01-03T03:55:47.849Z,728.78
2017-01-03T03:56:47.819Z,728.82
2017-01-03T03:57:47.788Z,728.87
2017-01-03T03:58:47.763Z,728.87
2017-01-03T03:59:47.733Z,728.84
2017-01-03T04:00:47.704Z,728.84
2017-01-03T04:01:47.673Z,728.83
2017-01-03T04:02:47.644Z,728.86
2017-01-03T04:03:47.614Z,728.87
2017-01-03T04:04:47.586Z,728.85
2017-01-03T04:05:47.560Z,728.89
2017-01-03T04:06:47.529Z,728.88
2017-01-03T04:07:47.499Z,728.96
2017-01-03T04:08:47.474Z,728.92
2017-01-03T04:09:47.442Z,728.93
2017-01-03T04:10:47.413Z,728.95
2017-01-03T04:11:47.385Z,728.96
2017-01-03T04:12:47.360Z,728.98
2017-01-03T04:13:47.328Z,728.95
2017-01-03T04:14:47.299Z,728.98
2017-01-03T04:15:47.272Z,729.01
2017-01-03T04:16:47.247Z,728.99
2017-01-03T04:17:47.216Z,729.01
2017-01-03T04:18:47.190Z,728.93
2017-01-03T04:19:47.159Z,728.95
2017-01-03T04:20:47.132Z,728.97
2017-01-03T04:21:47.106Z,729.04
2017-01-03T04:22:47.078Z,729.03
2017-01-03T04:23:47.052Z,729
2017-01-03T04:24:47.020Z,729.05
2017-01-03T04:25:46.991Z,729.08
2017-01-03T04:26:46.963Z,729.08
2017-01-03T04:27:46.936Z,729.07
2017-01-03T04:28:46.908Z,729.03
2017-01-03T04:29:46.884Z,729.07
2017-01-03T04:30:46.856Z,729.09
2017-01-03T04:31:46.829Z,729.08
2017-01-03T04:32:46.800Z,729.12
2017-01-03T04:33:46.773Z,729.12
2017-01-03T04:34:46.743Z,729.11
2017-01-03T04:35:46.719Z,729.13
2017-01-03T04:36:46.688Z,729.15
2017-01-03T04:37:46.663Z,729.16
2017-01-03T04:38:46.633Z,729.18
2017-01-03T04:39:46.606Z,729.15
2017-01-03T04:40:46.578Z,729.13
2017-01-03T04:41:46.551Z,729.12
2017-01-03T04:42:46.524Z,729.15
2017-01-03T04:43:46.495Z,729.17
2017-01-03T04:44:46.471Z,729.19
2017-01-03T04:45:46.445Z,729.2
2017-01-03T04:46:46.414Z,729.18
2017-01-03T04:47:46.385Z,729.18
2017-01-03T04:48:46.359Z,729.2
2017-01-03T04:49:46.331Z,729.15
2017-01-03T04:50:46.307Z,729.21
2017-01-03T04:51:46.280Z,729.23
2017-01-03T04:52:46.253Z,729.18
2017-01-03T04:53:46.223Z,729.25
2017-01-03T04:54:46.194Z,729.22
2017-01-03T04:55:46.168Z,729.24
2017-01-03T04:56:46.141Z,729.25
2017-01-03T04:57:46.117Z,729.25
2017-01-03T04:58:46.086Z,729.24
2017-01-03T04:59:46.062Z,729.27
2017-01-03T05:00:46.036Z,729.26
2017-01-03T05:01:46.006Z,729.25
2017-01-03T05:02:45.981Z,729.27
2017-01-03T05:03:45.955Z,729.31
2017-01-03T05:04:45.926Z,729.31
2017-01-03T05:05:45.902Z,729.33
2017-01-03T05:06:45.872Z,729.32
2017-01-03T05:07:45.849Z,729.38
2017-01-03T05:08:45.822Z,729.4
2017-01-03T05:09:45.795Z,729.36
2017-01-03T05:10:45.768Z,729.35
2017-01-03T05:11:45.742Z,729.32
2017-01-03T05:12:45.717Z,729.4
2017-01-03T05:13:45.686Z,729.34
2017-01-03T05:14:45.662Z,729.35
2017-01-03T05:15:45.633Z,729.37
2017-01-03T05:16:45.608Z,729.39
2017-01-03T05:17:45.579Z,729.39
2017-01-03T05:18:45.555Z,729.42
2017-01-03T05:19:45.528Z,729.42
2017-01-03T05:20:45.500Z,729.44
2017-01-03T05:21:45.473Z,729.46
2017-01-03T05:22:45.444Z,729.5
2017-01-03T05:23:45.419Z,729.48
2017-01-03T05:24:45.392Z,729.47
2017-01-03T05:25:45.362Z,729.47
2017-01-03T05:26:45.335Z,729.46
2017-01-03T05:27:45.306Z,729.44
2017-01-03T05:28:45.279Z,729.4
2017-01-03T05:29:45.255Z,729.38
2017-01-03T05:30:45.227Z,729.32
2017-01-03T05:31:45.195Z,729.33
2017-01-03T05:32:45.168Z,729.33
2017-01-03T05:33:45.144Z,729.35
2017-01-03T05:34:45.111Z,729.36
2017-01-03T05:35:45.084Z,729.38
2017-01-03T05:36:45.056Z,729.38
2017-01-03T05:37:45.031Z,729.44
2017-01-03T05:38:44.999Z,729.45
2017-01-03T05:39:44.976Z,729.47
2017-01-03T05:40:44.943Z,729.49
2017-01-03T05:41:44.917Z,729.46
2017-01-03T05:42:44.887Z,729.48
2017-01-03T05:43:44.862Z,729.49
2017-01-03T05:44:44.832Z,729.53
2017-01-03T05:45:44.803Z,729.47
2017-01-03T05:46:44.775Z,729.48
2017-01-03T05:47:44.748Z,729.5
2017-01-03T05:48:44.720Z,729.49
2017-01-03T05:49:44.694Z,729.48
2017-01-03T05:50:44.664Z,729.51
2017-01-03T05:51:44.636Z,729.55
2017-01-03T05:52:44.608Z,729.59
2017-01-03T05:53:44.582Z,729.53
2017-01-03T05:54:44.554Z,729.53
2017-01-03T05:55:44.526Z,729.58
2017-01-03T05:56:44.497Z,729.58
2017-01-03T05:57:44.469Z,729.57
2017-01-03T05:58:44.438Z,729.52
2017-01-03T05:59:44.410Z,729.57
2017-01-03T06:00:44.381Z,729.59
2017-01-03T06:01:44.357Z,729.58
2017-01-03T06:02:44.325Z,729.6
2017-01-03T06:03:44.298Z,729.62
2017-01-03T06:04:44.271Z,729.62
2017-01-03T06:05:44.240Z,729.66
2017-01-03T06:06:44.216Z,729.64
2017-01-03T06:07:44.183Z,729.6
2017-01-03T06:08:44.155Z,729.6
2017-01-03T06:09:44.127Z,729.6
2017-01-03T06:10:44.103Z,729.62
2017-01-03T06:11:44.073Z,729.58
2017-01-03T06:12:44.043Z,729.61
2017-01-03T06:13:44.019Z,729.63
2017-01-03T06:14:43.987Z,729.63
2017-01-03T06:15:43.961Z,729.67
2017-01-03T06:16:43.933Z,729.64
2017-01-03T06:17:43.905Z,729.63
2017-01-03T06:18:43.876Z,729.62
2017-01-03T06:19:43.845Z,729.63
2017-01-03T06:20:43.817Z,729.59
2017-01-03T06:21:43.792Z,729.57
2017-01-03T06:22:43.769Z,729.6
2017-01-03T06:23:43.732Z,729.59
2017-01-03T06:24:43.704Z,729.6
2017-01-03T06:25:43.678Z,729.64
2017-01-03T06:26:43.649Z,729.59
2017-01-03T06:27:43.622Z,729.61
2017-01-03T06:28:43.590Z,729.63
2017-01-03T06:29:43.564Z,729.63
2017-01-03T06:30:43.533Z,729.62
2017-01-03T06:31:43.508Z,729.66
2017-01-03T06:32:43.477Z,729.69
2017-01-03T06:33:43.454Z,729.64
2017-01-03T06:34:43.423Z,729.69
2017-01-03T06:35:43.392Z,729.63
2017-01-03T06:36:43.367Z,729.68
2017-01-03T06:37:43.336Z,729.72
2017-01-03T06:38:43.307Z,729.7
2017-01-03T06:39:43.282Z,729.67
2017-01-03T06:40:43.253Z,729.72
2017-01-03T06:41:43.224Z,729.72
2017-01-03T06:42:43.193Z,729.75
2017-01-03T06:43:43.165Z,729.71
2017-01-03T06:44:43.135Z,729.76
2017-01-03T06:45:43.107Z,729.8
2017-01-03T06:46:43.079Z,729.75
2017-01-03T06:47:43.050Z,729.77
2017-01-03T06:48:43.022Z,729.76
2017-01-03T06:49:42.993Z,729.84
2017-01-03T06:50:42.969Z,729.79
2017-01-03T06:51:42.940Z,729.8
2017-01-03T06:52:42.909Z,729.84
2017-01-03T06:53:42.884Z,729.83
2017-01-03T06:54:42.853Z,729.86
2017-01-03T06:55:42.825Z,729.85
2017-01-03T06:56:42.800Z,729.88
2017-01-03T06:57:42.775Z,729.85
2017-01-03T06:58:42.743Z,729.9
2017-01-03T06:59:42.713Z,729.92
2017-01-03T07:00:42.688Z,729.9
2017-01-03T07:01:42.657Z,729.95
2017-01-03T07:02:42.629Z,729.89
2017-01-03T07:03:42.603Z,729.91
2017-01-03T07:04:42.577Z,729.93
2017-01-03T07:05:42.548Z,729.93
2017-01-03T07:06:42.520Z,730
2017-01-03T07:07:42.489Z,729.92
2017-01-03T07:08:42.461Z,729.95
2017-01-03T07:09:42.432Z,729.99
2017-01-03T07:10:42.403Z,729.97
2017-01-03T07:11:42.377Z,730
2017-01-03T07:12:42.349Z,730.07
2017-01-03T07:13:42.320Z,730.05
2017-01-03T07:14:42.296Z,730.01
2017-01-03T07:15:42.265Z,730.07
2017-01-03T07:16:42.238Z,730.06
2017-01-03T07:17:42.210Z,730.09
2017-01-03T07:18:42.183Z,730.08
2017-01-03T07:19:42.156Z,730.13
2017-01-03T07:20:42.132Z,730.13
2017-01-03T07:21:42.103Z,730.11
2017-01-03T07:22:42.073Z,730.11
2017-01-03T07:23:42.049Z,730.13
2017-01-03T07:24:42.018Z,730.11
2017-01-03T07:25:41.992Z,730.11
2017-01-03T07:26:41.968Z,730.13
2017-01-03T07:27:41.937Z,730.14
2017-01-03T07:28:41.910Z,730.2
2017-01-03T07:29:41.887Z,730.15
2017-01-03T07:30:41.856Z,730.16
2017-01-03T07:31:41.832Z,730.21
2017-01-03T07:32:41.805Z,730.15
2017-01-03T07:33:41.777Z,730.18
2017-01-03T07:34:41.750Z,730.19
2017-01-03T07:35:41.723Z,730.23
2017-01-03T07:36:41.701Z,730.22
2017-01-03T07:37:41.671Z,730.24
2017-01-03T07:38:41.649Z,730.25
2017-01-03T07:39:41.623Z,730.21
2017-01-03T07:40:41.594Z,730.28
2017-01-03T07:41:41.572Z,730.25
2017-01-03T07:42:41.543Z,730.28
2017-01-03T07:43:41.520Z,730.27
2017-01-03T07:44:41.493Z,730.25
2017-01-03T07:45:41.468Z,730.33
2017-01-03T07:46:41.442Z,730.34
2017-01-03T07:47:41.417Z,730.35
2017-01-03T07:48:41.396Z,730.28
2017-01-03T07:49:41.372Z,730.34
2017-01-03T07:50:41.343Z,730.33
2017-01-03T07:51:41.322Z,730.35
2017-01-03T07:52:41.295Z,730.28
2017-01-03T07:53:41.273Z,730.32
2017-01-03T07:54:41.249Z,730.3
2017-01-03T07:55:41.226Z,730.28
2017-01-03T07:56:41.198Z,730.29
2017-01-03T07:57:41.177Z,730.3
2017-01-03T07:58:41.153Z,730.31
2017-01-03T07:59:41.127Z,730.33
2017-01-03T08:00:41.109Z,730.27
2017-01-03T08:01:41.083Z,730.27
2017-01-03T08:02:41.056Z,730.25
2017-01-03T08:03:41.033Z,730.29
2017-01-03T08:04:41.009Z,730.33
2017-01-03T08:05:40.989Z,730.34
2017-01-03T08:06:40.965Z,730.33
2017-01-03T08:07:40.939Z,730.36
2017-01-03T08:08:40.915Z,730.32
2017-01-03T08:09:40.895Z,730.36
2017-01-03T08:10:40.869Z,730.37
2017-01-03T08:11:40.849Z,730.41
2017-01-03T08:12:40.826Z,730.44
2017-01-03T08:13:40.800Z,730.4
2017-01-03T08:14:40.780Z,730.48
2017-01-03T08:15:40.753Z,730.46
2017-01-03T08:16:40.729Z,730.47
2017-01-03T08:17:40.706Z,730.48
2017-01-03T08:18:40.682Z,730.51
2017-01-03T08:19:40.662Z,730.48
2017-01-03T08:20:40.637Z,730.47
2017-01-03T08:21:40.615Z,730.5
2017-01-03T08:22:40.591Z,730.52
2017-01-03T08:23:40.569Z,730.55
2017-01-03T08:24:40.542Z,730.53
2017-01-03T08:25:40.522Z,730.5
2017-01-03T08:26:40.499Z,730.46
2017-01-03T08:27:40.476Z,730.49
2017-01-03T08:28:40.450Z,730.55
2017-01-03T08:29:40.427Z,730.48
2017-01-03T08:30:40.406Z,730.48
2017-01-03T08:31:40.383Z,730.52
2017-01-03T08:32:40.360Z,730.52
2017-01-03T08:33:40.336Z,730.54
2017-01-03T08:34:40.313Z,730.6
2017-01-03T08:35:40.290Z,730.55
2017-01-03T08:36:40.268Z,730.57
2017-01-03T08:37:40.244Z,730.53
2017-01-03T08:38:40.221Z,730.55
2017-01-03T08:39:40.196Z,730.53
2017-01-03T08:40:40.177Z,730.51
2017-01-03T08:41:40.153Z,730.57
2017-01-03T08:42:40.131Z,730.57
2017-01-03T08:43:40.109Z,730.54
2017-01-03T08:44:40.086Z,730.54
2017-01-03T08:45:40.060Z,730.53
2017-01-03T08:46:40.039Z,730.5
2017-01-03T08:47:40.016Z,730.51
2017-01-03T08:48:39.997Z,730.52
2017-01-03T08:49:39.975Z,730.52
2017-01-03T08:50:39.950Z,730.53
2017-01-03T08:51:39.928Z,730.49
2017-01-03T08:52:39.909Z,730.48
2017-01-03T08:53:39.885Z,730.53
2017-01-03T08:54:39.866Z,730.54
2017-01-03T08:55:39.841Z,730.52
2017-01-03T08:56:39.823Z,730.51
2017-01-03T08:57:39.801Z,730.53
2017-01-03T08:58:39.776Z,730.51
2017-01-03T08:59:39.754Z,730.52
2017-01-03T09:00:39.736Z,730.61
2017-01-03T09:01:39.712Z,730.63
2017-01-03T09:02:39.693Z,730.62
2017-01-03T09:03:39.669Z,730.66
2017-01-03T09:04:39.650Z,730.7
2017-01-03T09:05:39.629Z,730.66
2017-01-03T09:06:39.606Z,730.68
2017-01-03T09:07:39.585Z,730.66
2017-01-03T09:08:39.560Z,730.66
2017-01-03T09:09:39.542Z,730.67
2017-01-03T09:10:39.517Z,730.68
2017-01-03T09:11:39.495Z,730.66
2017-01-03T09:12:39.474Z,730.76
2017-01-03T09:13:39.456Z,730.72
2017-01-03T09:14:39.431Z,730.77
2017-01-03T09:15:39.410Z,730.81
2017-01-03T09:16:39.392Z,730.86
2017-01-03T09:17:39.367Z,730.84
2017-01-03T09:18:39.349Z,730.87
2017-01-03T09:19:39.325Z,730.85
2017-01-03T09:20:39.309Z,730.83
2017-01-03T09:21:39.283Z,730.88
2017-01-03T09:22:39.263Z,730.87
2017-01-03T09:23:39.246Z,730.88
2017-01-03T09:24:39.225Z,730.95
2017-01-03T09:25:39.201Z,730.93
2017-01-03T09:26:39.183Z,730.96
2017-01-03T09:27:39.160Z,730.96
2017-01-03T09:28:39.140Z,730.93
2017-01-03T09:29:39.119Z,730.93
2017-01-03T09:30:39.102Z,730.95
2017-01-03T09:31:39.078Z,730.99
2017-01-03T09:32:39.060Z,731
2017-01-03T09:33:39.037Z,731.01
2017-01-03T09:34:39.020Z,731.02
2017-01-03T09:35:38.997Z,730.97
2017-01-03T09:36:38.979Z,730.99
2017-01-03T09:37:38.955Z,730.98
2017-01-03T09:38:38.935Z,731
2017-01-03T09:39:38.914Z,731
2017-01-03T09:40:38.897Z,731.03
2017-01-03T09:41:38.873Z,731.05
2017-01-03T09:42:38.856Z,731
2017-01-03T09:43:38.832Z,730.99
2017-01-03T09:44:38.811Z,730.97
2017-01-03T09:45:38.794Z,730.95
2017-01-03T09:46:38.774Z,731
2017-01-03T09:47:38.753Z,731.02
2017-01-03T09:48:38.729Z,730.98
2017-01-03T09:49:38.710Z,731.02
2017-01-03T09:50:38.687Z,730.99
2017-01-03T09:51:38.671Z,730.99
2017-01-03T09:52:38.653Z,731
2017-01-03T09:53:38.631Z,731.07
2017-01-03T09:54:38.610Z,731.01
2017-01-03T09:55:38.588Z,731.03
2017-01-03T09:56:38.568Z,731.02
2017-01-03T09:57:38.551Z,731.05
2017-01-03T09:58:38.531Z,731.01
2017-01-03T09:59:38.510Z,730.99
2017-01-03T10:00:38.490Z,731.02
2017-01-03T10:01:38.472Z,731.02
2017-01-03T10:02:38.450Z,731.02
2017-01-03T10:03:38.434Z,730.98
2017-01-03T10:04:38.412Z,730.96
2017-01-03T10:05:38.395Z,731.01
2017-01-03T10:06:38.373Z,730.99
2017-01-03T10:07:38.354Z,730.98
2017-01-03T10:08:38.333Z,730.94
2017-01-03T10:09:38.317Z,730.96
2017-01-03T10:10:38.298Z,730.92
2017-01-03T10:11:38.276Z,730.94
2017-01-03T10:12:38.259Z,730.92
2017-01-03T10:13:38.239Z,730.9
2017-01-03T10:14:38.220Z,730.91
2017-01-03T10:15:38.201Z,730.93
2017-01-03T10:16:38.181Z,730.91
2017-01-03T10:17:38.158Z,730.92
2017-01-03T10:18:38.142Z,730.91
2017-01-03T10:19:38.118Z,730.84
2017-01-03T10:20:38.102Z,730.86
2017-01-03T10:21:38.082Z,730.86
2017-01-03T10:22:38.060Z,730.79
2017-01-03T10:23:38.040Z,730.78
2017-01-03T10:24:38.024Z,730.79
2017-01-03T10:25:38.005Z,730.83
2017-01-03T10:26:37.982Z,730.81
2017-01-03T10:27:37.962Z,730.8
2017-01-03T10:28:37.948Z,730.82
2017-01-03T10:29:37.925Z,730.86
2017-01-03T10:30:37.908Z,730.91
2017-01-03T10:31:37.889Z,730.83
2017-01-03T10:32:37.871Z,730.85
2017-01-03T10:33:37.850Z,730.82
2017-01-03T10:34:37.829Z,730.84
2017-01-03T10:35:37.813Z,730.86
2017-01-03T10:36:37.791Z,730.83
2017-01-03T10:37:37.771Z,730.85
2017-01-03T10:38:37.752Z,730.85
2017-01-03T10:39:37.736Z,730.9
2017-01-03T10:40:37.714Z,730.88
2017-01-03T10:41:37.694Z,730.87
2017-01-03T10:42:37.676Z,730.84
2017-01-03T10:43:37.657Z,730.93
2017-01-03T10:44:37.638Z,730.91
2017-01-03T10:45:37.621Z,730.9
2017-01-03T10:46:37.602Z,730.92
2017-01-03T10:47:37.581Z,730.93
2017-01-03T10:48:37.562Z,730.91
2017-01-03T10:49:37.546Z,730.91
2017-01-03T10:50:37.527Z,730.92
2017-01-03T10:51:37.508Z,730.89
2017-01-03T10:52:37.485Z,730.91
2017-01-03T10:53:37.469Z,730.9
2017-01-03T10:54:37.448Z,730.9
2017-01-03T10:55:37.431Z,730.89
2017-01-03T10:56:37.407Z,730.87
2017-01-03T10:57:37.388Z,730.88
2017-01-03T10:58:37.372Z,730.88
2017-01-03T10:59:37.353Z,730.91
2017-01-03T11:00:37.333Z,730.88
2017-01-03T11:01:37.313Z,730.87
2017-01-03T11:02:37.294Z,730.88
2017-01-03T11:03:37.274Z,730.88
2017-01-03T11:04:37.256Z,730.86
2017-01-03T11:05:37.236Z,730.83
2017-01-03T11:06:37.217Z,730.88
2017-01-03T11:07:37.197Z,730.87
2017-01-03T11:08:37.177Z,730.88
2017-01-03T11:09:37.154Z,730.87
2017-01-03T11:10:37.337Z,730.88
2017-01-03T11:11:37.114Z,730.91
2017-01-03T11:12:37.095Z,730.94
2017-01-03T11:13:37.078Z,730.97
2017-01-03T11:14:37.057Z,730.98
2017-01-03T11:15:37.038Z,730.98
2017-01-03T11:16:37.018Z,730.99
2017-01-03T11:17:36.998Z,730.98
2017-01-03T11:18:36.978Z,730.95
2017-01-03T11:19:36.958Z,730.98
2017-01-03T11:20:36.936Z,731.03
2017-01-03T11:21:36.917Z,731
2017-01-03T11:22:36.901Z,731.02
2017-01-03T11:23:36.882Z,731.03
2017-01-03T11:24:36.863Z,731.06
2017-01-03T11:25:36.844Z,731.03
2017-01-03T11:26:36.826Z,731.05
2017-01-03T11:27:36.805Z,731.08
2017-01-03T11:28:36.786Z,731.12
2017-01-03T11:29:36.764Z,731.12
2017-01-03T11:30:36.745Z,731.08
2017-01-03T11:31:36.729Z,731.09
2017-01-03T11:32:36.707Z,731.06
2017-01-03T11:33:36.707Z,731.03
2017-01-03T11:34:36.670Z,731.05
2017-01-03T11:35:36.654Z,731.04
2017-01-03T11:36:36.634Z,731.03
2017-01-03T11:37:36.617Z,731.06
2017-01-03T11:38:36.595Z,731.07
2017-01-03T11:39:36.580Z,731.12
2017-01-03T11:40:36.561Z,731.07
2017-01-03T11:41:36.542Z,731.07
2017-01-03T11:42:36.524Z,731.01
2017-01-03T11:43:36.505Z,731.03
2017-01-03T11:44:36.486Z,731.06
2017-01-03T11:45:36.468Z,731.04
2017-01-03T11:46:36.447Z,730.99
2017-01-03T11:47:36.427Z,731
2017-01-03T11:48:36.409Z,731
2017-01-03T11:49:36.391Z,731.04
2017-01-03T11:50:36.373Z,731.02
2017-01-03T11:51:36.356Z,731.05
2017-01-03T11:52:36.338Z,731.07
2017-01-03T11:53:36.321Z,731.02
2017-01-03T11:54:36.301Z,731
2017-01-03T11:55:36.282Z,731.04
2017-01-03T11:56:36.264Z,731.01
2017-01-03T11:57:36.346Z,730.99
2017-01-03T11:58:36.227Z,731
2017-01-03T11:59:36.208Z,730.98
2017-01-03T12:00:36.187Z,730.96
2017-01-03T12:01:36.171Z,730.98
2017-01-03T12:02:36.149Z,731
2017-01-03T12:03:36.131Z,730.99
2017-01-03T12:04:36.314Z,731
2017-01-03T12:05:36.298Z,731
2017-01-03T12:06:36.077Z,731.05
2017-01-03T12:07:36.056Z,731.03
2017-01-03T12:08:36.040Z,730.99
2017-01-03T12:09:36.018Z,731.01
2017-01-03T12:10:36.002Z,730.96
2017-01-03T12:11:35.981Z,730.99
2017-01-03T12:12:35.962Z,730.99
2017-01-03T12:13:35.942Z,730.98
2017-01-03T12:14:35.924Z,730.98
2017-01-03T12:15:35.908Z,730.95
2017-01-03T12:16:35.885Z,730.95
2017-01-03T12:17:35.867Z,730.91
2017-01-03T12:18:35.851Z,730.88
2017-01-03T12:19:35.830Z,730.9
2017-01-03T12:20:35.813Z,730.89
2017-01-03T12:21:35.792Z,730.92
2017-01-03T12:22:35.773Z,730.9
2017-01-03T12:23:35.758Z,730.92
2017-01-03T12:24:35.736Z,730.85
2017-01-03T12:25:35.720Z,730.92
2017-01-03T12:26:35.699Z,730.86
2017-01-03T12:27:35.683Z,730.81
2017-01-03T12:28:35.665Z,730.81
2017-01-03T12:29:35.644Z,730.85
2017-01-03T12:30:35.627Z,730.83
2017-01-03T12:31:35.607Z,730.84
2017-01-03T12:32:35.592Z,730.87
2017-01-03T12:33:35.574Z,730.86